FCO weather

Leonardo da Vinci–Fiumicino Airport
Rome, Lazio, Italy

Public forecast

Using degrees Celsius for public forecast. Weather courtesy of forecast.io.

Current aviation weather report (METAR) for Leonardo da Vinci–Fiumicino Airport

Retrieved 2019/10/23 01:20 UTC (32 minutes ago):

LIRF 230120Z 09005KT CAVOK 14/14 Q1019 NOSIG

Aviation forecast (TAF) for Leonardo da Vinci–Fiumicino Airport

Retrieved 2019-10-23 00:00 UTC (2 hours ago):

TAF LIRF 222300Z 2300/2406 VRB05KT CAVOK BECMG 2308/2310 16014KT